Time;durP1;ratioP1;P1;durP2;ratioP2;P2;SDS_P1;SDS_P2;PMS_P1;PMS_P2;Temp;Humidity;BMP_temperature;BMP_pressure;BME280_temperature;BME280_humidity;BME280_pressure;Samples;Min_cycle;Max_cycle;Signal;HPM_P1;HPM_P2
2024/02/25 00:01:35;;;;;;;4.67;3.53;;;9.30;95.40;;;;;;5029898;28;20313;-59
2024/02/25 00:04:03;;;;;;;8.87;4.33;;;9.20;95.50;;;;;;5031796;28;20279;-60
2024/02/25 00:06:30;;;;;;;6.67;4.77;;;9.30;95.50;;;;;;5031567;28;20208;-59
2024/02/25 00:08:57;;;;;;;6.03;3.70;;;9.30;95.60;;;;;;5030343;28;20207;-60
2024/02/25 00:11:25;;;;;;;5.47;4.10;;;9.30;95.60;;;;;;5032112;28;20201;-59
2024/02/25 00:13:52;;;;;;;5.47;4.00;;;9.30;95.50;;;;;;5029983;28;20197;-59
2024/02/25 00:16:20;;;;;;;6.13;4.17;;;9.30;95.50;;;;;;5035922;28;20509;-59
2024/02/25 00:18:47;;;;;;;7.07;4.50;;;9.30;95.50;;;;;;5036245;28;20209;-59
2024/02/25 00:21:14;;;;;;;10.83;4.73;;;9.30;95.80;;;;;;5033685;28;20206;-59
2024/02/25 00:23:42;;;;;;;6.23;4.27;;;9.30;95.60;;;;;;5034713;28;20212;-59
2024/02/25 00:26:09;;;;;;;6.87;4.30;;;9.30;95.60;;;;;;5034225;28;20208;-59
2024/02/25 00:28:38;;;;;;;6.83;4.53;;;9.20;95.60;;;;;;5033160;28;20233;-59
2024/02/25 00:31:05;;;;;;;8.53;4.70;;;9.20;95.70;;;;;;5034869;28;20551;-59
2024/02/25 00:33:33;;;;;;;9.33;4.47;;;9.20;95.70;;;;;;5034656;28;20312;-59
2024/02/25 00:36:00;;;;;;;10.27;4.90;;;9.20;95.70;;;;;;5034151;28;20218;-59
2024/02/25 00:38:28;;;;;;;6.57;4.67;;;9.20;95.80;;;;;;5034822;28;20209;-59
2024/02/25 00:40:55;;;;;;;5.53;4.60;;;9.10;95.80;;;;;;5034916;28;20607;-59
2024/02/25 00:43:28;;;;;;;5.83;4.90;;;9.10;95.90;;;;;;5034206;28;20216;-59
2024/02/25 00:45:55;;;;;;;6.27;4.83;;;9.10;95.80;;;;;;5035209;28;20208;-59
2024/02/25 00:48:22;;;;;;;6.20;3.90;;;9.10;95.80;;;;;;5033743;28;20213;-59
2024/02/25 00:50:49;;;;;;;5.10;3.83;;;9.10;95.90;;;;;;5033659;28;20192;-59
2024/02/25 00:53:17;;;;;;;5.77;4.50;;;9.10;95.90;;;;;;5031645;28;20353;-59
2024/02/25 00:55:44;;;;;;;7.00;5.27;;;9.10;95.90;;;;;;5035037;28;20213;-59
2024/02/25 00:58:11;;;;;;;4.67;3.80;;;9.10;96.10;;;;;;5033954;28;20205;-59
2024/02/25 01:00:39;;;;;;;5.73;4.17;;;9.10;96.10;;;;;;5034396;28;20601;-60
2024/02/25 01:03:06;;;;;;;6.17;4.27;;;9.10;96.10;;;;;;5034162;28;20240;-59
2024/02/25 01:05:34;;;;;;;5.57;4.53;;;9.10;96.10;;;;;;5032424;28;20288;-59
2024/02/25 01:08:02;;;;;;;5.63;4.10;;;9.10;96.10;;;;;;5032966;28;20650;-59
2024/02/25 01:10:29;;;;;;;6.90;4.40;;;9.10;96.00;;;;;;5031037;28;20662;-59
2024/02/25 01:12:56;;;;;;;6.93;5.00;;;9.00;95.90;;;;;;5033712;28;20233;-59
2024/02/25 01:15:23;;;;;;;6.97;4.30;;;9.00;95.90;;;;;;5044772;28;20269;-59
2024/02/25 01:17:50;;;;;;;6.37;4.97;;;8.90;95.90;;;;;;5033544;28;20206;-59
2024/02/25 01:20:17;;;;;;;7.67;5.47;;;8.90;95.90;;;;;;5033443;28;20263;-59
2024/02/25 01:22:45;;;;;;;8.37;5.80;;;8.90;95.90;;;;;;5028111;28;20266;-59
2024/02/25 01:25:12;;;;;;;6.27;5.00;;;8.80;95.90;;;;;;5033529;28;20887;-59
2024/02/25 01:27:39;;;;;;;7.60;5.40;;;8.80;96.00;;;;;;5031044;28;20254;-59
2024/02/25 01:30:10;;;;;;;7.17;5.00;;;8.80;96.00;;;;;;5033124;28;20208;-59
2024/02/25 01:32:37;;;;;;;7.37;5.27;;;8.70;96.10;;;;;;5028628;28;20304;-58
2024/02/25 01:35:05;;;;;;;6.17;5.10;;;8.70;96.10;;;;;;5048251;28;20235;-59
2024/02/25 01:37:32;;;;;;;7.77;5.17;;;8.60;96.00;;;;;;5032577;28;20200;-59
2024/02/25 01:39:59;;;;;;;7.53;6.03;;;8.60;95.90;;;;;;5028655;28;20199;-58
2024/02/25 01:42:27;;;;;;;6.83;5.77;;;8.60;95.90;;;;;;5031006;28;20218;-59
2024/02/25 01:44:57;;;;;;;9.23;4.70;;;8.50;96.00;;;;;;5031206;28;20224;-59
2024/02/25 01:47:26;;;;;;;8.57;6.00;;;8.50;96.10;;;;;;5031027;28;20302;-59
2024/02/25 01:49:54;;;;;;;8.10;5.73;;;8.40;96.10;;;;;;5031912;28;20673;-59
2024/02/25 01:52:24;;;;;;;7.60;5.90;;;8.40;96.10;;;;;;5030841;28;20273;-59
2024/02/25 01:54:52;;;;;;;7.13;5.60;;;8.40;96.20;;;;;;5042903;28;20564;-59
2024/02/25 01:57:20;;;;;;;7.20;5.67;;;8.40;96.40;;;;;;5034528;28;20631;-59
2024/02/25 01:59:49;;;;;;;9.40;5.87;;;8.50;96.50;;;;;;5030739;28;20218;-59
2024/02/25 02:02:18;;;;;;;9.10;6.90;;;8.50;96.50;;;;;;5032781;28;20306;-59
2024/02/25 02:04:46;;;;;;;11.10;6.87;;;8.50;96.50;;;;;;5017197;28;20273;-59
2024/02/25 02:07:14;;;;;;;8.53;6.93;;;8.60;96.70;;;;;;5032513;28;20234;-59
2024/02/25 02:09:41;;;;;;;7.00;6.30;;;8.60;96.70;;;;;;5033933;28;20218;-59
2024/02/25 02:12:08;;;;;;;10.57;6.67;;;8.70;96.80;;;;;;5030715;28;20211;-59
2024/02/25 02:14:35;;;;;;;7.93;7.07;;;8.80;96.80;;;;;;5033912;28;20241;-59
2024/02/25 02:17:05;;;;;;;8.57;6.67;;;8.70;96.70;;;;;;5030929;28;20220;-59
2024/02/25 02:19:32;;;;;;;10.00;6.60;;;8.80;96.70;;;;;;5032924;28;20556;-60
2024/02/25 02:21:59;;;;;;;8.50;6.40;;;8.80;96.70;;;;;;5029969;28;20636;-59
2024/02/25 02:24:26;;;;;;;10.13;6.70;;;8.80;96.80;;;;;;5034347;28;20203;-59
2024/02/25 02:26:53;;;;;;;8.87;7.03;;;8.80;96.80;;;;;;5032238;28;20204;-59
2024/02/25 02:29:20;;;;;;;8.03;7.20;;;8.80;96.80;;;;;;5028703;28;20287;-59
2024/02/25 02:31:49;;;;;;;9.67;7.50;;;8.80;96.80;;;;;;5030658;28;20262;-59
2024/02/25 02:34:16;;;;;;;10.50;7.37;;;8.90;96.80;;;;;;5023760;28;20238;-59
2024/02/25 02:36:44;;;;;;;11.63;7.47;;;8.90;96.80;;;;;;5029713;28;20206;-59
2024/02/25 02:39:11;;;;;;;10.23;7.33;;;8.90;96.80;;;;;;5033024;28;20202;-59
2024/02/25 02:41:39;;;;;;;10.23;8.10;;;8.90;96.80;;;;;;5032019;28;20281;-59
2024/02/25 02:44:07;;;;;;;11.23;8.30;;;8.90;96.90;;;;;;5015656;28;20206;-59
2024/02/25 02:46:38;;;;;;;8.37;6.57;;;8.90;96.90;;;;;;5028759;28;20209;-59
2024/02/25 02:49:06;;;;;;;10.93;8.10;;;8.90;97.00;;;;;;5032358;28;20220;-59
2024/02/25 02:51:34;;;;;;;12.80;8.00;;;8.90;97.00;;;;;;5029979;28;20218;-59
2024/02/25 02:54:02;;;;;;;11.27;7.50;;;8.90;97.10;;;;;;5030459;28;20232;-59
2024/02/25 02:56:34;;;;;;;9.00;7.83;;;9.00;97.10;;;;;;5031223;28;20629;-59
2024/02/25 02:59:01;;;;;;;7.90;7.07;;;9.00;97.00;;;;;;5031934;28;20208;-59
2024/02/25 03:01:28;;;;;;;10.30;7.13;;;9.00;97.10;;;;;;5012470;28;20215;-59
2024/02/25 03:03:55;;;;;;;9.50;7.40;;;9.00;97.10;;;;;;5032826;28;20208;-59
2024/02/25 03:06:23;;;;;;;9.57;7.17;;;9.00;97.10;;;;;;5031471;28;20209;-59
2024/02/25 03:08:50;;;;;;;10.17;7.50;;;9.00;97.10;;;;;;5031644;28;20205;-59
2024/02/25 03:11:17;;;;;;;8.30;7.50;;;9.00;97.20;;;;;;5022865;28;20204;-59
2024/02/25 03:13:45;;;;;;;8.70;7.80;;;9.00;97.10;;;;;;5029327;28;20213;-58
2024/02/25 03:16:12;;;;;;;11.40;8.10;;;9.00;97.40;;;;;;5032803;28;20264;-59
2024/02/25 03:18:39;;;;;;;8.93;8.03;;;9.00;97.20;;;;;;5028660;28;20194;-59
2024/02/25 03:21:07;;;;;;;10.47;8.60;;;9.00;97.20;;;;;;5032329;28;20215;-59
2024/02/25 03:23:35;;;;;;;13.80;8.43;;;9.00;97.20;;;;;;5028154;28;20209;-59
2024/02/25 03:26:03;;;;;;;11.73;9.23;;;9.10;97.30;;;;;;5027408;28;20213;-59
2024/02/25 03:28:30;;;;;;;12.27;8.40;;;9.10;97.30;;;;;;5030945;28;20292;-58
2024/02/25 03:30:57;;;;;;;12.90;9.37;;;9.10;97.30;;;;;;5027329;28;20233;-59
2024/02/25 03:33:24;;;;;;;9.53;8.47;;;9.10;97.30;;;;;;5031317;28;20228;-59
2024/02/25 03:35:52;;;;;;;13.30;8.83;;;9.10;97.30;;;;;;5031378;28;20209;-59
2024/02/25 03:38:19;;;;;;;11.20;8.40;;;9.10;97.30;;;;;;5030218;28;20215;-59
2024/02/25 03:40:46;;;;;;;14.13;8.23;;;9.10;97.30;;;;;;5030582;28;20194;-59
2024/02/25 03:43:14;;;;;;;9.60;8.30;;;9.00;97.30;;;;;;5031311;28;20194;-59
2024/02/25 03:45:42;;;;;;;12.93;9.50;;;9.10;97.30;;;;;;5033819;28;20201;-59
2024/02/25 03:48:09;;;;;;;8.60;7.70;;;9.10;97.30;;;;;;5034918;28;20264;-59
2024/02/25 03:50:37;;;;;;;10.00;7.93;;;9.10;97.30;;;;;;5036342;28;20225;-59
2024/02/25 03:53:04;;;;;;;11.27;8.27;;;9.10;97.30;;;;;;5031526;28;20246;-59
2024/02/25 03:55:32;;;;;;;9.77;8.10;;;9.10;97.20;;;;;;5034196;28;20226;-59
2024/02/25 03:57:59;;;;;;;14.10;8.83;;;9.10;97.30;;;;;;5036799;28;20217;-59
2024/02/25 04:00:26;;;;;;;10.13;8.63;;;9.10;97.30;;;;;;5033845;28;20218;-59
2024/02/25 04:02:53;;;;;;;11.53;8.43;;;9.10;97.30;;;;;;5032385;28;20232;-59
2024/02/25 04:05:21;;;;;;;12.80;8.20;;;9.10;97.30;;;;;;5033881;28;20227;-59
2024/02/25 04:07:48;;;;;;;9.67;8.53;;;9.10;97.30;;;;;;5034271;28;20230;-59
2024/02/25 04:10:15;;;;;;;10.37;8.57;;;9.10;97.40;;;;;;5036034;28;20606;-59
2024/02/25 04:12:44;;;;;;;9.93;7.50;;;9.10;97.40;;;;;;5026194;28;20203;-59
2024/02/25 04:15:11;;;;;;;10.30;8.37;;;9.10;97.40;;;;;;5035449;28;20260;-59
2024/02/25 04:17:38;;;;;;;14.17;9.03;;;9.10;97.40;;;;;;5052340;28;20599;-59
2024/02/25 04:20:06;;;;;;;11.73;8.17;;;9.10;97.40;;;;;;5034576;28;20208;-59
2024/02/25 04:22:33;;;;;;;11.40;8.20;;;9.10;97.40;;;;;;5035073;28;20202;-59
2024/02/25 04:25:01;;;;;;;12.93;9.30;;;9.10;97.40;;;;;;5027992;28;20289;-59
2024/02/25 04:27:29;;;;;;;10.70;8.63;;;9.10;97.40;;;;;;5052132;28;20198;-59
2024/02/25 04:29:56;;;;;;;9.80;8.27;;;9.10;97.40;;;;;;5031543;28;20226;-59
2024/02/25 04:32:23;;;;;;;10.93;8.43;;;9.10;97.40;;;;;;5034433;28;20540;-59
2024/02/25 04:34:50;;;;;;;8.67;7.77;;;9.10;97.50;;;;;;5034290;28;20242;-59
2024/02/25 04:37:18;;;;;;;8.77;7.83;;;9.00;97.50;;;;;;5035905;28;20203;-59
2024/02/25 04:39:45;;;;;;;10.87;7.67;;;9.00;97.50;;;;;;5034696;28;20208;-59
2024/02/25 04:42:12;;;;;;;10.70;8.83;;;9.00;97.60;;;;;;5032839;28;20205;-59
2024/02/25 04:44:40;;;;;;;9.23;7.93;;;9.00;97.70;;;;;;5029234;28;20202;-59
2024/02/25 04:47:07;;;;;;;9.33;8.33;;;9.00;97.70;;;;;;5034964;28;20848;-59
2024/02/25 04:49:34;;;;;;;13.50;8.40;;;9.00;97.70;;;;;;5028649;28;20197;-59
2024/02/25 04:52:01;;;;;;;9.67;8.40;;;9.00;97.80;;;;;;5032832;28;20238;-59
2024/02/25 04:54:28;;;;;;;11.20;8.43;;;9.00;97.80;;;;;;5029719;28;20260;-59
2024/02/25 04:56:55;;;;;;;8.97;7.57;;;9.10;97.80;;;;;;5035338;28;20199;-59
2024/02/25 04:59:22;;;;;;;10.33;8.63;;;9.10;97.80;;;;;;5034600;28;20614;-59
2024/02/25 05:01:50;;;;;;;12.37;8.47;;;9.10;97.80;;;;;;5033674;28;20205;-58
2024/02/25 05:04:17;;;;;;;10.57;9.10;;;9.10;97.70;;;;;;5034743;28;20226;-59
2024/02/25 05:06:44;;;;;;;11.80;10.10;;;9.10;97.70;;;;;;5033074;28;20566;-59
2024/02/25 05:09:12;;;;;;;11.07;9.03;;;9.10;97.70;;;;;;5018433;28;20218;-59
2024/02/25 05:11:39;;;;;;;12.63;9.23;;;9.00;97.70;;;;;;5032647;28;20652;-59
2024/02/25 05:14:06;;;;;;;10.40;9.07;;;9.00;97.70;;;;;;5032388;28;20233;-59
2024/02/25 05:16:33;;;;;;;11.40;9.80;;;9.00;97.80;;;;;;5035018;28;20196;-59
2024/02/25 05:19:01;;;;;;;11.97;8.87;;;9.00;97.80;;;;;;5034912;28;20279;-59
2024/02/25 05:21:31;;;;;;;10.50;9.23;;;9.00;97.80;;;;;;5034515;28;20216;-59
2024/02/25 05:23:58;;;;;;;11.67;9.20;;;9.00;97.80;;;;;;5035542;28;20630;-59
2024/02/25 05:26:25;;;;;;;13.23;9.43;;;9.00;97.80;;;;;;5029595;28;20199;-59
2024/02/25 05:28:52;;;;;;;11.87;8.50;;;9.00;97.80;;;;;;5033996;28;20203;-59
2024/02/25 05:31:19;;;;;;;14.57;9.30;;;9.00;97.80;;;;;;5034083;28;20203;-59
2024/02/25 05:33:46;;;;;;;12.10;8.87;;;9.00;97.80;;;;;;5029424;28;20243;-59
2024/02/25 05:36:16;;;;;;;10.20;8.80;;;9.00;97.80;;;;;;5030562;28;20211;-59
2024/02/25 05:38:44;;;;;;;12.03;9.27;;;8.90;97.70;;;;;;5031632;28;20261;-59
2024/02/25 05:41:12;;;;;;;9.20;8.27;;;8.90;97.70;;;;;;5034900;28;20566;-59
2024/02/25 05:43:40;;;;;;;10.50;8.23;;;8.90;97.70;;;;;;5029579;28;20204;-59
2024/02/25 05:46:07;;;;;;;9.20;8.33;;;8.90;97.60;;;;;;5029382;28;20202;-59
2024/02/25 05:48:34;;;;;;;13.10;8.80;;;8.80;97.60;;;;;;5032144;28;20213;-59
2024/02/25 05:51:04;;;;;;;9.73;8.70;;;8.80;97.60;;;;;;5026164;28;20288;-59
2024/02/25 05:53:32;;;;;;;11.87;8.83;;;8.80;97.60;;;;;;5034869;28;20208;-59
2024/02/25 05:56:00;;;;;;;9.37;7.80;;;8.70;97.60;;;;;;5033792;28;20521;-59
2024/02/25 05:58:27;;;;;;;10.93;8.80;;;8.70;97.60;;;;;;5034440;28;20260;-59
2024/02/25 06:00:55;;;;;;;9.83;7.93;;;8.70;97.60;;;;;;5028200;28;20203;-59
2024/02/25 06:03:22;;;;;;;8.27;6.93;;;8.70;97.60;;;;;;5048808;28;20567;-59
2024/02/25 06:05:50;;;;;;;10.53;8.07;;;8.60;97.60;;;;;;5035009;28;20200;-59
2024/02/25 06:08:18;;;;;;;10.87;8.30;;;8.60;97.60;;;;;;5029180;28;20234;-60
2024/02/25 06:10:46;;;;;;;9.20;7.30;;;8.60;97.60;;;;;;5029990;28;20234;-59
2024/02/25 06:13:13;;;;;;;9.10;8.07;;;8.60;97.60;;;;;;5033379;28;20213;-61
2024/02/25 06:15:41;;;;;;;10.97;8.13;;;8.60;97.60;;;;;;5026660;28;20200;-59
2024/02/25 06:18:10;;;;;;;9.23;7.17;;;8.60;97.60;;;;;;5034581;28;20246;-59
2024/02/25 06:20:39;;;;;;;10.43;8.17;;;8.70;97.60;;;;;;5032873;28;20208;-59
2024/02/25 06:23:07;;;;;;;9.13;6.77;;;8.60;97.60;;;;;;5032420;28;20638;-59
2024/02/25 06:25:35;;;;;;;9.33;7.70;;;8.60;97.60;;;;;;5034363;28;20199;-60
2024/02/25 06:28:03;;;;;;;8.77;7.43;;;8.60;97.50;;;;;;5031863;28;20683;-59
2024/02/25 06:30:31;;;;;;;12.77;7.53;;;8.70;97.50;;;;;;5032565;28;20195;-59
2024/02/25 06:32:58;;;;;;;8.60;7.40;;;8.70;97.40;;;;;;5033106;28;20655;-59
2024/02/25 06:35:26;;;;;;;10.77;7.63;;;8.70;97.40;;;;;;5030582;28;20536;-59
2024/02/25 06:37:53;;;;;;;8.50;7.50;;;8.70;97.30;;;;;;5033174;28;20199;-59
2024/02/25 06:40:21;;;;;;;9.97;7.90;;;8.70;97.40;;;;;;5030543;28;20196;-59
2024/02/25 06:42:48;;;;;;;11.60;7.67;;;8.70;97.50;;;;;;5033683;28;20215;-59
2024/02/25 06:45:15;;;;;;;8.10;7.30;;;8.80;97.50;;;;;;5046908;28;20511;-59
2024/02/25 06:47:46;;;;;;;9.67;7.40;;;8.80;97.40;;;;;;5028060;28;20221;-59
2024/02/25 06:50:15;;;;;;;9.17;6.97;;;8.90;97.30;;;;;;5032580;28;20639;-59
2024/02/25 06:52:42;;;;;;;10.87;7.43;;;8.90;97.20;;;;;;5032219;28;20203;-59
2024/02/25 06:55:10;;;;;;;10.30;8.23;;;9.00;97.20;;;;;;5029197;28;20742;-59
2024/02/25 06:57:37;;;;;;;9.10;8.07;;;9.00;97.20;;;;;;5030445;28;20201;-59
2024/02/25 07:00:07;;;;;;;12.90;7.77;;;9.00;97.10;;;;;;5034299;28;20288;-59
2024/02/25 07:02:36;;;;;;;11.73;7.97;;;9.10;97.10;;;;;;5032908;28;20209;-59
2024/02/25 07:05:04;;;;;;;11.63;8.87;;;9.10;97.10;;;;;;5033538;28;20200;-59
2024/02/25 07:07:32;;;;;;;11.23;9.13;;;9.20;97.10;;;;;;5039872;28;20210;-58
2024/02/25 07:09:59;;;;;;;13.83;9.07;;;9.20;97.20;;;;;;5032722;28;20268;-60
2024/02/25 07:12:26;;;;;;;17.53;9.83;;;9.30;97.30;;;;;;5031635;28;20222;-59
2024/02/25 07:14:54;;;;;;;13.03;9.63;;;9.40;97.50;;;;;;5032800;28;20226;-59
2024/02/25 07:17:22;;;;;;;11.27;9.93;;;9.50;97.40;;;;;;5033205;28;20240;-59
2024/02/25 07:19:51;;;;;;;12.53;9.23;;;9.70;97.60;;;;;;5033556;28;20237;-58
2024/02/25 07:22:19;;;;;;;12.53;9.30;;;9.90;97.10;;;;;;5037889;28;20202;-59
2024/02/25 07:24:47;;;;;;;14.03;10.30;;;9.90;96.90;;;;;;5034986;28;20643;-59
2024/02/25 07:27:15;;;;;;;11.67;10.40;;;10.00;96.90;;;;;;5039403;28;20295;-59
2024/02/25 07:29:43;;;;;;;10.07;8.87;;;10.20;96.80;;;;;;5019853;28;20590;-58
2024/02/25 07:32:10;;;;;;;9.80;8.77;;;10.20;96.50;;;;;;5039211;28;20208;-58
2024/02/25 07:34:42;;;;;;;10.53;8.93;;;10.20;96.20;;;;;;5036991;28;20284;-59
2024/02/25 07:37:10;;;;;;;12.10;8.67;;;10.20;96.10;;;;;;5037560;28;20208;-59
2024/02/25 07:39:38;;;;;;;11.17;8.90;;;10.20;96.10;;;;;;5033686;28;20274;-58
2024/02/25 07:42:05;;;;;;;14.90;9.67;;;10.10;96.20;;;;;;5039503;28;20206;-59
2024/02/25 07:44:34;;;;;;;15.50;9.43;;;10.10;96.20;;;;;;5050517;28;20267;-59
2024/02/25 07:47:02;;;;;;;10.37;8.60;;;10.10;96.20;;;;;;5034237;28;20209;-59
2024/02/25 07:49:29;;;;;;;11.80;8.67;;;10.10;96.30;;;;;;5034676;28;20571;-60
2024/02/25 07:51:57;;;;;;;12.00;9.40;;;10.20;96.40;;;;;;5036162;28;20523;-60
2024/02/25 07:54:24;;;;;;;13.00;9.17;;;10.40;96.40;;;;;;5036130;28;20593;-59
2024/02/25 07:56:52;;;;;;;10.93;8.97;;;10.60;96.70;;;;;;5054560;28;20202;-59
2024/02/25 07:59:19;;;;;;;10.43;9.07;;;10.70;96.40;;;;;;5032317;28;20277;-59
2024/02/25 08:01:47;;;;;;;11.13;8.80;;;10.90;96.20;;;;;;5037751;28;20539;-59
2024/02/25 08:04:14;;;;;;;10.27;8.20;;;11.10;96.10;;;;;;5042309;28;20220;-59
2024/02/25 08:06:42;;;;;;;10.83;7.57;;;11.40;95.70;;;;;;5036050;28;20540;-59
2024/02/25 08:09:10;;;;;;;8.87;7.70;;;11.60;95.40;;;;;;5018902;28;20269;-59
2024/02/25 08:11:38;;;;;;;11.70;8.47;;;11.80;95.10;;;;;;5031098;28;20555;-59
2024/02/25 08:14:06;;;;;;;9.83;7.80;;;12.00;94.60;;;;;;5038821;28;20680;-60
2024/02/25 08:16:37;;;;;;;9.73;8.20;;;12.20;94.00;;;;;;5037879;28;20264;-59
2024/02/25 08:19:05;;;;;;;13.07;7.80;;;12.40;93.90;;;;;;5036333;28;20274;-60
2024/02/25 08:21:33;;;;;;;11.80;8.90;;;12.50;93.50;;;;;;5039199;28;20191;-60
2024/02/25 08:24:00;;;;;;;10.67;8.57;;;12.50;93.20;;;;;;5036575;28;20203;-59
2024/02/25 08:26:27;;;;;;;12.73;8.87;;;12.60;92.80;;;;;;5037306;28;20210;-59
2024/02/25 08:28:55;;;;;;;13.67;9.50;;;12.60;92.60;;;;;;5038034;28;20693;-59
2024/02/25 08:31:22;;;;;;;8.87;7.90;;;12.70;92.60;;;;;;5036898;28;20383;-59
2024/02/25 08:33:49;;;;;;;9.67;7.33;;;12.80;92.30;;;;;;5048819;28;20256;-59
2024/02/25 08:36:17;;;;;;;9.53;7.70;;;12.90;91.90;;;;;;5033529;28;20199;-59
2024/02/25 08:38:45;;;;;;;11.90;7.60;;;13.00;91.70;;;;;;5033998;28;20257;-59
2024/02/25 08:41:12;;;;;;;9.10;6.43;;;13.10;91.60;;;;;;5032953;28;20211;-59
2024/02/25 08:43:39;;;;;;;8.70;7.17;;;13.20;91.20;;;;;;5030148;28;20207;-59
2024/02/25 08:46:07;;;;;;;9.20;7.50;;;13.30;91.10;;;;;;5034978;28;20207;-60
2024/02/25 08:48:34;;;;;;;11.07;7.30;;;13.40;91.00;;;;;;5028829;28;20212;-59
2024/02/25 08:51:01;;;;;;;10.17;7.07;;;13.50;90.50;;;;;;5031991;28;20203;-59
2024/02/25 08:53:29;;;;;;;9.20;7.50;;;13.60;90.60;;;;;;5033033;28;20217;-59
2024/02/25 08:55:57;;;;;;;8.70;6.97;;;13.80;90.50;;;;;;5027467;28;20256;-59
2024/02/25 08:58:24;;;;;;;7.33;6.47;;;13.90;89.90;;;;;;5031027;28;20224;-59
2024/02/25 09:00:52;;;;;;;7.50;6.20;;;14.00;89.20;;;;;;5032862;28;20195;-59
2024/02/25 09:03:20;;;;;;;11.13;7.40;;;14.10;87.80;;;;;;5032877;28;20218;-59
2024/02/25 09:06:04;;;;;;;7.67;6.23;;;14.00;87.20;;;;;;5034138;28;20216;-59
2024/02/25 09:08:32;;;;;;;6.77;6.00;;;14.10;87.30;;;;;;5033749;28;20204;-59
2024/02/25 09:11:00;;;;;;;11.53;6.83;;;14.10;86.40;;;;;;5032998;28;20648;-59
2024/02/25 09:13:27;;;;;;;6.80;5.37;;;14.10;86.40;;;;;;5034385;28;20226;-59
2024/02/25 09:15:54;;;;;;;7.83;4.83;;;14.00;85.40;;;;;;5035831;28;20284;-59
2024/02/25 09:18:21;;;;;;;7.33;6.63;;;14.00;86.00;;;;;;5035004;28;20219;-59
2024/02/25 09:20:49;;;;;;;10.67;6.57;;;14.10;85.90;;;;;;5032784;28;20230;-59
2024/02/25 09:23:16;;;;;;;10.73;6.70;;;14.10;86.70;;;;;;5031038;28;20200;-59
2024/02/25 09:25:43;;;;;;;8.77;7.00;;;14.10;86.70;;;;;;5030894;28;20532;-59
2024/02/25 09:28:16;;;;;;;7.43;6.47;;;14.20;86.70;;;;;;5034380;28;20211;-59
2024/02/25 09:30:44;;;;;;;10.43;6.60;;;14.30;86.20;;;;;;5034515;28;20206;-59
2024/02/25 09:33:11;;;;;;;8.43;6.50;;;14.30;86.30;;;;;;5031435;28;20203;-59
2024/02/25 09:35:38;;;;;;;9.13;6.30;;;14.40;86.20;;;;;;5049204;28;20230;-59
2024/02/25 09:38:06;;;;;;;9.67;7.23;;;14.60;86.30;;;;;;5033769;28;20611;-59
2024/02/25 09:40:33;;;;;;;9.27;6.07;;;14.70;85.80;;;;;;5033749;28;20919;-59
2024/02/25 09:43:00;;;;;;;8.03;6.87;;;14.80;85.40;;;;;;5030923;28;20667;-59
2024/02/25 09:45:33;;;;;;;10.07;5.97;;;14.80;84.70;;;;;;5031809;28;20200;-59
2024/02/25 09:48:02;;;;;;;11.87;7.10;;;14.90;84.60;;;;;;5033913;28;20211;-59
2024/02/25 09:50:31;;;;;;;11.87;7.00;;;14.90;84.40;;;;;;5033535;28;20359;-60
2024/02/25 09:52:59;;;;;;;10.90;6.27;;;14.90;84.10;;;;;;5032630;28;20202;-60
2024/02/25 09:55:26;;;;;;;6.73;4.57;;;15.00;84.00;;;;;;5032101;28;20230;-60
2024/02/25 09:57:54;;;;;;;6.50;4.63;;;15.00;83.30;;;;;;5033500;28;20294;-59
2024/02/25 10:00:21;;;;;;;6.80;5.13;;;15.00;80.80;;;;;;5033680;28;20202;-60
2024/02/25 10:02:49;;;;;;;5.93;4.40;;;14.90;82.20;;;;;;5034187;28;20223;-59
2024/02/25 10:05:18;;;;;;;7.67;4.60;;;14.90;82.10;;;;;;5034369;28;20230;-59
2024/02/25 10:08:02;;;;;;;7.73;5.37;;;14.90;81.10;;;;;;5029600;28;20206;-59
2024/02/25 10:10:32;;;;;;;7.90;6.90;;;14.90;81.50;;;;;;5032584;28;20214;-59
2024/02/25 10:13:03;;;;;;;10.57;6.87;;;14.90;82.10;;;;;;5031206;28;20269;-59
2024/02/25 10:15:30;;;;;;;8.47;6.90;;;14.90;82.60;;;;;;5029739;28;20223;-60
2024/02/25 10:17:57;;;;;;;7.50;6.80;;;15.00;83.20;;;;;;5031211;28;20605;-59
2024/02/25 10:20:25;;;;;;;7.30;6.03;;;15.00;83.60;;;;;;5028467;28;21463;-59
2024/02/25 10:23:14;;;;;;;6.83;5.17;;;15.10;83.20;;;;;;5032939;28;20281;-59
2024/02/25 10:25:43;;;;;;;4.17;3.77;;;15.30;83.40;;;;;;5029009;28;20211;-60
2024/02/25 10:28:17;;;;;;;7.70;5.60;;;15.40;82.20;;;;;;5029636;28;20200;-59
2024/02/25 10:31:01;;;;;;;7.13;4.70;;;15.50;80.00;;;;;;5032987;28;20205;-60
2024/02/25 10:33:28;;;;;;;6.80;5.17;;;15.50;78.80;;;;;;5027586;28;20513;-60
2024/02/25 10:36:08;;;;;;;6.43;5.37;;;15.40;76.50;;;;;;5033094;28;20222;-60
2024/02/25 10:38:44;;;;;;;7.47;5.03;;;15.30;78.50;;;;;;5030689;28;20195;-60
2024/02/25 10:41:13;;;;;;;7.07;5.93;;;15.30;79.10;;;;;;5032616;28;20199;-60
2024/02/25 10:43:40;;;;;;;8.07;6.60;;;15.40;80.00;;;;;;5047888;28;20202;-60
2024/02/25 10:46:30;;;;;;;11.03;7.43;;;15.50;80.70;;;;;;5032805;28;20195;-59
2024/02/25 10:48:58;;;;;;;9.13;7.00;;;15.70;80.60;;;;;;5033201;28;20651;-60
2024/02/25 10:51:26;;;;;;;8.30;6.03;;;15.70;80.30;;;;;;5029767;28;20236;-60
2024/02/25 10:53:53;;;;;;;7.27;5.93;;;15.70;79.50;;;;;;5032452;28;20199;-60
2024/02/25 10:56:21;;;;;;;9.10;6.50;;;15.70;79.40;;;;;;5027293;28;20246;-60
2024/02/25 10:58:50;;;;;;;9.60;6.83;;;15.80;79.90;;;;;;5029357;28;20203;-60
2024/02/25 11:01:19;;;;;;;11.17;7.67;;;15.80;79.30;;;;;;5028343;28;20211;-60
2024/02/25 11:03:47;;;;;;;8.90;5.83;;;15.80;80.00;;;;;;5028992;28;20195;-60
2024/02/25 11:06:30;;;;;;;8.83;5.77;;;15.90;79.60;;;;;;5031003;28;20202;-60
2024/02/25 11:09:02;;;;;;;9.60;6.10;;;16.00;78.80;;;;;;5030475;28;20198;-60
2024/02/25 11:11:30;;;;;;;8.10;6.67;;;16.00;76.90;;;;;;5031287;28;20226;-60
2024/02/25 11:14:00;;;;;;;6.10;5.50;;;16.00;77.30;;;;;;5030794;28;20641;-60
2024/02/25 11:16:30;;;;;;;7.73;5.23;;;15.90;78.00;;;;;;5028049;28;20669;-60
2024/02/25 11:19:01;;;;;;;6.47;4.63;;;15.90;78.90;;;;;;5032184;28;20195;-60
2024/02/25 11:21:31;;;;;;;5.47;4.90;;;16.00;78.90;;;;;;5030945;28;20205;-60
2024/02/25 11:23:58;;;;;;;5.53;4.10;;;16.10;78.40;;;;;;5032606;28;20295;-60
2024/02/25 11:26:35;;;;;;;6.93;4.07;;;16.20;77.20;;;;;;5031258;28;20215;-60
2024/02/25 11:29:18;;;;;;;8.10;4.80;;;16.30;76.30;;;;;;5030659;28;20632;-60
2024/02/25 11:31:47;;;;;;;7.33;4.40;;;16.30;76.50;;;;;;5031733;28;20223;-59
2024/02/25 11:34:21;;;;;;;4.90;4.40;;;16.40;77.30;;;;;;5026132;28;20239;-59
2024/02/25 11:36:51;;;;;;;5.20;3.80;;;16.50;76.80;;;;;;5031726;28;20216;-60
2024/02/25 11:39:21;;;;;;;5.87;3.83;;;16.60;76.30;;;;;;5032051;28;20220;-60
2024/02/25 11:41:49;;;;;;;4.63;3.70;;;16.70;76.10;;;;;;5032451;28;20211;-60
2024/02/25 11:44:17;;;;;;;4.10;3.60;;;16.80;75.30;;;;;;5032603;28;20209;-59
2024/02/25 11:46:45;;;;;;;5.60;3.70;;;16.80;74.40;;;;;;5028687;28;20208;-59
2024/02/25 11:49:14;;;;;;;6.63;4.10;;;16.70;73.30;;;;;;5031533;28;20201;-60
2024/02/25 11:51:43;;;;;;;4.93;4.43;;;16.50;74.10;;;;;;5027378;28;20204;-60
2024/02/25 11:54:12;;;;;;;5.80;4.10;;;16.40;74.60;;;;;;5031165;28;20626;-60
2024/02/25 11:56:40;;;;;;;6.17;4.07;;;16.30;74.10;;;;;;5030389;28;20236;-60
2024/02/25 11:59:08;;;;;;;4.90;3.83;;;16.30;74.50;;;;;;5030309;28;20245;-60
2024/02/25 12:01:37;;;;;;;5.67;3.93;;;16.40;73.70;;;;;;5031354;28;20197;-60
2024/02/25 12:04:05;;;;;;;5.83;3.00;;;16.40;74.20;;;;;;5030158;28;20201;-60
2024/02/25 12:06:36;;;;;;;7.87;3.83;;;16.50;72.80;;;;;;5032587;28;20274;-60
2024/02/25 12:09:08;;;;;;;6.13;3.60;;;16.50;72.40;;;;;;5030099;28;20208;-60
2024/02/25 12:11:37;;;;;;;4.23;3.83;;;16.40;72.00;;;;;;5018529;28;20287;-60
2024/02/25 12:14:23;;;;;;;6.53;3.87;;;16.40;72.10;;;;;;5035812;28;20224;-60
2024/02/25 12:16:50;;;;;;;7.57;3.80;;;16.10;73.20;;;;;;5047685;28;20318;-60
2024/02/25 12:19:19;;;;;;;6.13;3.73;;;15.90;73.80;;;;;;5035002;28;20202;-60
2024/02/25 12:21:51;;;;;;;5.63;3.83;;;15.70;74.80;;;;;;5032622;28;20226;-60
2024/02/25 12:24:18;;;;;;;5.87;3.20;;;15.70;74.90;;;;;;5031740;28;20560;-60
2024/02/25 12:26:54;;;;;;;5.23;3.07;;;15.70;74.40;;;;;;5032772;28;20220;-60
2024/02/25 12:29:27;;;;;;;5.87;3.30;;;15.80;74.20;;;;;;5031244;28;20221;-60
2024/02/25 12:31:55;;;;;;;6.03;3.07;;;15.70;74.00;;;;;;5034237;28;20203;-60
2024/02/25 12:34:25;;;;;;;4.33;3.10;;;15.60;74.50;;;;;;5034679;28;20263;-61
2024/02/25 12:36:56;;;;;;;4.27;2.90;;;15.50;74.70;;;;;;5033251;28;20294;-59
2024/02/25 12:39:26;;;;;;;4.13;2.90;;;15.50;74.80;;;;;;5029868;28;20212;-60
2024/02/25 12:42:05;;;;;;;4.40;3.00;;;15.40;75.10;;;;;;5034712;28;20532;-59
2024/02/25 12:44:33;;;;;;;3.00;2.70;;;15.40;75.30;;;;;;5050611;28;20264;-58
2024/02/25 12:47:00;;;;;;;3.53;2.53;;;15.30;75.50;;;;;;5033708;28;20242;-58
2024/02/25 12:49:28;;;;;;;4.23;2.83;;;15.40;75.30;;;;;;5025207;28;20231;-59
2024/02/25 12:51:56;;;;;;;4.93;3.10;;;15.50;74.80;;;;;;5048992;28;20207;-59
2024/02/25 12:54:27;;;;;;;4.13;2.60;;;15.70;75.00;;;;;;5026762;28;20213;-59